NCAR-RAP Real-Time Weather Data

Output produced by METARs form (23 February 2020  02:18 UTC)
found at http://weather.rap.ucar.edu/surface/
 
KICT 230153Z 18009KT 10SM BKN200 10/02 A3003 RMK AO2 SLP176 T01000022
KICT 230053Z 18009KT 10SM BKN170 BKN230 11/02 A3005 RMK AO2 SLP180 T01060022
KICT 222353Z 19009KT 10SM BKN170 BKN230 12/02 A3004 RMK AO2 SLP177 T01220022 10144 20106 55002
KICT 222253Z 20015KT 10SM BKN170 BKN230 14/02 A3004 RMK AO2 SLP175 T01390022
KICT 222153Z 21016G22KT 10SM FEW150 BKN220 14/02 A3004 RMK AO2 SLP176 T01440017
KICT 222053Z 19014KT 10SM FEW150 BKN250 14/01 A3005 RMK AO2 SLP178 T01390011 56037
KICT 221953Z 20018G24KT 10SM FEW150 BKN250 13/01 A3008 RMK AO2 PK WND 19027/1926 SLP191 T01330006
KICT 221853Z 19017G24KT 10SM BKN250 12/00 A3012 RMK AO2 PK WND 19026/1841 SLP202 T01220000
KICT 221753Z 19018G25KT 10SM BKN250 11/M01 A3016 RMK AO2 SLP220 T01061006 10106 20000 58018
KICT 221653Z 19017KT 10SM FEW200 BKN300 08/M02 A3018 RMK AO2 SLP227 T00781022
KICT 221553Z 19015KT 10SM FEW150 BKN300 06/M03 A3020 RMK AO2 SLP235 T00561033
KICT 221453Z 18013KT 10SM BKN250 03/M04 A3022 RMK AO2 SLP241 T00281044 50003
KICT 221353Z 19010KT 10SM SCT150 BKN250 01/M06 A3022 RMK AO2 SLP243 T00061056
KICT 221253Z 18010KT 10SM FEW180 BKN250 00/M06 A3021 RMK AO2 SLP239 T00001061
KICT 221153Z 17009KT 10SM BKN220 01/M06 A3021 RMK AO2 SLP236 T00061061 10006 21006 56013
KICT 221053Z 18012KT 10SM BKN250 01/M06 A3022 RMK AO2 SLP241 T00061061
KICT 220953Z 18012KT 10SM BKN250 01/M06 A3023 RMK AO2 SLP243 T00061061
KICT 220853Z 18011KT 10SM SCT250 00/M06 A3025 RMK AO2 SLP250 T00001056 58021
KICT 220753Z 19010KT 10SM SCT250 00/M06 A3027 RMK AO2 SLP259 T00001061
KICT 220653Z 18010KT 10SM FEW250 M01/M06 A3029 RMK AO2 SLP267 T10061061
KICT 220553Z 18008KT 10SM FEW250 M01/M07 A3031 RMK AO2 SLP275 T10061067 10056 21022 400831111 58017
KICT 220453Z 17006KT 10SM FEW250 M02/M08 A3033 RMK AO2 SLP285 T10221078
KICT 220353Z 16007KT 10SM FEW250 M01/M07 A3034 RMK AO2 SLP289 T10061072
KICT 220253Z 16007KT 10SM FEW250 01/M07 A3036 RMK AO2 SLP296 T00061072 55003
KICT 220153Z 17010KT 10SM FEW250 02/M06 A3035 RMK AO2 SLP294 T00221061
KICT 220053Z 18009KT 10SM FEW250 03/M06 A3036 RMK AO2 SLP297 T00281056
KICT 212353Z 19012KT 10SM SCT250 06/M06 A3037 RMK AO2 SLP300 T00561056 10083 20028 56020
KICT 212253Z 18016G23KT 10SM FEW250 07/M06 A3038 RMK AO2 SLP300 T00721056
KICT 212153Z 19017KT 10SM SCT250 08/M06 A3041 RMK AO2 SLP309 T00781056
KICT 212053Z 18016G23KT 10SM FEW250 07/M05 A3043 RMK AO2 SLP319 T00721050 56051
KICT 211953Z 19016KT 10SM FEW250 06/M06 A3047 RMK AO2 SLP333 T00611056
KICT 211853Z 21014KT 10SM CLR 04/M06 A3053 RMK AO2 SLP353 T00441056
KICT 211753Z 20015G21KT 10SM CLR 03/M06 A3059 RMK AO2 SLP374 I6000 T00281061 10028 21111 58016
KICT 211653Z 20012KT 10SM CLR 00/M07 A3061 RMK AO2 SLP382 T00001072
KICT 211553Z 20013KT 10SM CLR M02/M07 A3063 RMK AO2 SLP390 T10171072
KICT 211453Z 19010KT 10SM CLR M04/M08 A3064 RMK AO2 SLP392 I3000 T10441078 53001
KICT 211353Z 19004KT 10SM CLR M08/M11 A3064 RMK AO2 SLP396 T10831106
KICT 211253Z 19005KT 10SM CLR M10/M12 A3063 RMK AO2 SLP392 I1000 T11001117
KICT 211153Z 16003KT 10SM CLR M10/M12 A3063 RMK AO2 SLP394 I6000 T11001122 11061 21106 56014
KICT 211053Z 15003KT 10SM CLR M09/M11 A3064 RMK AO2 SLP394 I1000 T10891111
KICT 210953Z 16003KT 10SM CLR M09/M11 A3066 RMK AO2 SLP399 I1000 T10891111
KICT 210853Z 00000KT 10SM CLR M08/M11 A3068 RMK AO2 SLP407 T10831106 58014
KICT 210753Z 00000KT 10SM CLR M08/M11 A3070 RMK AO2 SLP416 T10781106
KICT 210653Z 30003KT 10SM CLR M07/M11 A3071 RMK AO2 SLP420 T10721106
KICT 210553Z 29004KT 10SM CLR M07/M11 A3072 RMK AO2 SLP423 T10721111 11017 21078 400001078 58004
KICT 210453Z 30005KT 10SM CLR M06/M11 A3073 RMK AO2 SLP426 T10561106
KICT 210353Z 27003KT 10SM CLR M06/M11 A3074 RMK AO2 SLP429 T10611106
KICT 210253Z 31004KT 10SM CLR M05/M10 A3073 RMK AO2 SLP426 T10501100 50007